createdAt,value
2018-02-07T08:55:57.749Z,18.20
2018-02-07T08:58:26.182Z,19.00
2018-02-07T09:00:53.699Z,18.27
2018-02-07T09:03:21.951Z,19.42
2018-02-07T09:05:49.760Z,19.45
2018-02-07T09:08:17.695Z,20.20
2018-02-07T09:10:45.159Z,18.45
2018-02-07T09:13:13.775Z,19.70
2018-02-07T09:15:41.335Z,19.30
2018-02-07T09:18:09.639Z,18.70
2018-02-07T09:20:37.537Z,18.70
2018-02-07T09:23:05.007Z,20.10
2018-02-07T09:25:32.890Z,19.93
2018-02-07T09:28:00.660Z,19.10
2018-02-07T09:30:28.900Z,19.97
2018-02-07T09:32:56.410Z,19.50
2018-02-07T09:35:24.256Z,20.57
2018-02-07T09:37:52.515Z,20.10
2018-02-07T09:40:20.852Z,20.53
2018-02-07T09:42:49.499Z,19.23
2018-02-07T09:45:17.743Z,19.40
2018-02-07T09:47:45.251Z,20.03
2018-02-07T09:50:13.104Z,20.27
2018-02-07T09:52:40.604Z,19.60
2018-02-07T09:55:08.080Z,19.47
2018-02-07T09:57:35.879Z,18.67
2018-02-07T10:00:04.120Z,19.07
2018-02-07T10:02:32.532Z,19.10
2018-02-07T10:05:01.055Z,18.63
2018-02-07T10:07:28.576Z,18.20
2018-02-07T10:09:56.060Z,17.27
2018-02-07T10:12:24.412Z,18.70
2018-02-07T10:14:52.304Z,18.43
2018-02-07T10:17:20.756Z,18.93
2018-02-07T10:19:48.900Z,19.00
2018-02-07T10:22:17.146Z,18.77
2018-02-07T10:24:45.463Z,19.50
2018-02-07T10:27:17.274Z,19.50
2018-02-07T10:29:45.863Z,18.13
2018-02-07T10:32:13.364Z,16.57
2018-02-07T10:34:41.275Z,17.00
2018-02-07T10:37:10.267Z,18.43
2018-02-07T10:39:37.801Z,16.60
2018-02-07T10:42:06.918Z,16.90
2018-02-07T10:44:35.166Z,14.83
2018-02-07T10:47:03.403Z,15.27
2018-02-07T10:49:31.614Z,14.97
2018-02-07T10:51:59.487Z,14.07
2018-02-07T10:54:28.124Z,13.30
2018-02-07T10:56:56.040Z,14.67
2018-02-07T10:59:23.930Z,14.20
2018-02-07T11:01:52.175Z,12.70
2018-02-07T11:04:21.575Z,13.20
2018-02-07T11:06:49.045Z,15.83
2018-02-07T11:22:44.348Z,14.15
2018-02-07T11:25:11.879Z,14.25
2018-02-07T11:27:39.363Z,13.60
2018-02-07T11:30:07.272Z,11.93
2018-02-07T11:32:34.739Z,12.77
2018-02-07T11:35:02.214Z,11.35
2018-02-07T11:37:29.964Z,12.20
2018-02-07T11:39:57.468Z,10.85
2018-02-07T11:42:25.341Z,11.75
2018-02-07T11:44:53.881Z,11.77
2018-02-07T11:47:22.155Z,11.90
2018-02-07T11:52:54.895Z,10.68
2018-02-07T11:55:22.391Z,11.40
2018-02-07T11:57:49.884Z,11.20
2018-02-07T12:00:17.692Z,10.60
2018-02-07T12:02:45.215Z,10.27
2018-02-07T12:05:12.706Z,9.85
2018-02-07T12:07:40.897Z,10.13
2018-02-07T12:10:08.376Z,9.52
2018-02-07T12:12:35.854Z,8.45
2018-02-07T12:15:03.650Z,10.38
2018-02-07T12:17:31.116Z,9.13
2018-02-07T12:19:58.615Z,8.95
